sensor_id;sensor_type;location;lat;lon;timestamp;P1;durP1;ratioP1;P2;durP2;ratioP2
17955;SDS011;27666;51.498;11.966;2023-07-02T00:02:41;8.63;;;5.45;;
17955;SDS011;27666;51.498;11.966;2023-07-02T00:05:28;5.20;;;3.45;;
17955;SDS011;27666;51.498;11.966;2023-07-02T00:08:16;4.28;;;2.47;;
17955;SDS011;27666;51.498;11.966;2023-07-02T00:11:03;2.97;;;2.55;;
17955;SDS011;27666;51.498;11.966;2023-07-02T00:13:50;4.97;;;2.80;;
17955;SDS011;27666;51.498;11.966;2023-07-02T00:16:37;5.38;;;3.00;;
17955;SDS011;27666;51.498;11.966;2023-07-02T00:19:24;2.80;;;2.60;;
17955;SDS011;27666;51.498;11.966;2023-07-02T00:22:11;5.10;;;2.70;;
17955;SDS011;27666;51.498;11.966;2023-07-02T00:25:02;5.10;;;2.78;;
17955;SDS011;27666;51.498;11.966;2023-07-02T00:27:48;4.18;;;3.08;;
17955;SDS011;27666;51.498;11.966;2023-07-02T00:30:35;3.15;;;2.80;;
17955;SDS011;27666;51.498;11.966;2023-07-02T00:33:22;4.07;;;2.80;;
17955;SDS011;27666;51.498;11.966;2023-07-02T00:36:09;5.00;;;2.90;;
17955;SDS011;27666;51.498;11.966;2023-07-02T00:38:59;3.38;;;3.00;;
17955;SDS011;27666;51.498;11.966;2023-07-02T00:41:47;4.15;;;2.83;;
17955;SDS011;27666;51.498;11.966;2023-07-02T00:44:34;3.47;;;2.90;;
17955;SDS011;27666;51.498;11.966;2023-07-02T00:47:25;4.75;;;3.50;;
17955;SDS011;27666;51.498;11.966;2023-07-02T00:50:12;9.65;;;3.40;;
17955;SDS011;27666;51.498;11.966;2023-07-02T00:53:00;4.25;;;3.33;;
17955;SDS011;27666;51.498;11.966;2023-07-02T00:55:46;3.30;;;3.00;;
17955;SDS011;27666;51.498;11.966;2023-07-02T00:58:34;3.78;;;3.28;;
17955;SDS011;27666;51.498;11.966;2023-07-02T01:01:25;3.60;;;3.15;;
17955;SDS011;27666;51.498;11.966;2023-07-02T01:04:14;4.22;;;3.10;;
17955;SDS011;27666;51.498;11.966;2023-07-02T01:07:04;5.03;;;3.10;;
17955;SDS011;27666;51.498;11.966;2023-07-02T01:09:56;4.10;;;2.97;;
17955;SDS011;27666;51.498;11.966;2023-07-02T01:12:43;5.45;;;3.10;;
17955;SDS011;27666;51.498;11.966;2023-07-02T01:15:31;3.40;;;3.10;;
17955;SDS011;27666;51.498;11.966;2023-07-02T01:18:19;4.80;;;3.45;;
17955;SDS011;27666;51.498;11.966;2023-07-02T01:21:07;3.97;;;3.30;;
17955;SDS011;27666;51.498;11.966;2023-07-02T01:23:54;5.28;;;3.50;;
17955;SDS011;27666;51.498;11.966;2023-07-02T01:26:40;6.78;;;2.97;;
17955;SDS011;27666;51.498;11.966;2023-07-02T01:29:29;3.30;;;3.00;;
17955;SDS011;27666;51.498;11.966;2023-07-02T01:32:18;6.32;;;3.75;;
17955;SDS011;27666;51.498;11.966;2023-07-02T01:35:05;4.07;;;3.30;;
17955;SDS011;27666;51.498;11.966;2023-07-02T01:37:54;5.47;;;3.53;;
17955;SDS011;27666;51.498;11.966;2023-07-02T01:40:40;5.85;;;3.42;;
17955;SDS011;27666;51.498;11.966;2023-07-02T01:43:27;5.28;;;3.05;;
17955;SDS011;27666;51.498;11.966;2023-07-02T01:46:13;8.60;;;3.88;;
17955;SDS011;27666;51.498;11.966;2023-07-02T01:49:01;5.93;;;3.38;;
17955;SDS011;27666;51.498;11.966;2023-07-02T01:51:48;6.97;;;3.45;;
17955;SDS011;27666;51.498;11.966;2023-07-02T01:54:36;6.13;;;3.40;;
17955;SDS011;27666;51.498;11.966;2023-07-02T01:57:23;4.13;;;3.10;;
17955;SDS011;27666;51.498;11.966;2023-07-02T02:00:09;5.72;;;2.83;;
17955;SDS011;27666;51.498;11.966;2023-07-02T02:02:57;4.10;;;2.90;;
17955;SDS011;27666;51.498;11.966;2023-07-02T02:05:43;7.50;;;2.92;;
17955;SDS011;27666;51.498;11.966;2023-07-02T02:08:30;3.08;;;2.78;;
17955;SDS011;27666;51.498;11.966;2023-07-02T02:11:18;3.70;;;2.97;;
17955;SDS011;27666;51.498;11.966;2023-07-02T02:14:04;3.38;;;2.80;;
17955;SDS011;27666;51.498;11.966;2023-07-02T02:16:51;5.93;;;2.50;;
17955;SDS011;27666;51.498;11.966;2023-07-02T02:19:38;6.45;;;2.85;;
17955;SDS011;27666;51.498;11.966;2023-07-02T02:22:24;3.72;;;2.83;;
17955;SDS011;27666;51.498;11.966;2023-07-02T02:25:10;3.13;;;2.67;;
17955;SDS011;27666;51.498;11.966;2023-07-02T02:27:58;3.55;;;2.90;;
17955;SDS011;27666;51.498;11.966;2023-07-02T02:30:45;6.55;;;2.90;;
17955;SDS011;27666;51.498;11.966;2023-07-02T02:33:32;3.03;;;2.67;;
17955;SDS011;27666;51.498;11.966;2023-07-02T02:36:20;3.65;;;2.80;;
17955;SDS011;27666;51.498;11.966;2023-07-02T02:39:06;5.53;;;2.80;;
17955;SDS011;27666;51.498;11.966;2023-07-02T02:41:52;4.15;;;3.15;;
17955;SDS011;27666;51.498;11.966;2023-07-02T02:44:40;3.50;;;2.78;;
17955;SDS011;27666;51.498;11.966;2023-07-02T02:47:26;4.32;;;2.80;;
17955;SDS011;27666;51.498;11.966;2023-07-02T02:50:13;4.45;;;2.92;;
17955;SDS011;27666;51.498;11.966;2023-07-02T02:53:00;21.73;;;13.43;;
17955;SDS011;27666;51.498;11.966;2023-07-02T02:55:47;21.35;;;13.02;;
17955;SDS011;27666;51.498;11.966;2023-07-02T02:58:33;4.47;;;3.17;;
17955;SDS011;27666;51.498;11.966;2023-07-02T03:01:22;3.70;;;2.97;;
17955;SDS011;27666;51.498;11.966;2023-07-02T03:04:08;5.32;;;3.10;;
17955;SDS011;27666;51.498;11.966;2023-07-02T03:06:55;4.07;;;3.15;;
17955;SDS011;27666;51.498;11.966;2023-07-02T03:09:41;5.95;;;3.35;;
17955;SDS011;27666;51.498;11.966;2023-07-02T03:12:28;3.83;;;3.25;;
17955;SDS011;27666;51.498;11.966;2023-07-02T03:15:15;4.82;;;3.22;;
17955;SDS011;27666;51.498;11.966;2023-07-02T03:18:03;4.95;;;3.47;;
17955;SDS011;27666;51.498;11.966;2023-07-02T03:20:51;5.28;;;3.38;;
17955;SDS011;27666;51.498;11.966;2023-07-02T03:23:38;3.45;;;3.20;;
17955;SDS011;27666;51.498;11.966;2023-07-02T03:26:24;9.70;;;3.30;;
17955;SDS011;27666;51.498;11.966;2023-07-02T03:29:10;5.88;;;3.42;;
17955;SDS011;27666;51.498;11.966;2023-07-02T03:31:57;7.05;;;3.45;;
17955;SDS011;27666;51.498;11.966;2023-07-02T03:34:46;4.13;;;3.13;;
17955;SDS011;27666;51.498;11.966;2023-07-02T03:37:33;4.85;;;3.15;;
17955;SDS011;27666;51.498;11.966;2023-07-02T03:40:21;7.68;;;3.50;;
17955;SDS011;27666;51.498;11.966;2023-07-02T03:43:07;3.85;;;3.40;;
17955;SDS011;27666;51.498;11.966;2023-07-02T03:45:54;3.55;;;3.22;;
17955;SDS011;27666;51.498;11.966;2023-07-02T03:48:40;5.60;;;3.10;;
17955;SDS011;27666;51.498;11.966;2023-07-02T03:51:28;4.20;;;2.92;;
17955;SDS011;27666;51.498;11.966;2023-07-02T03:54:16;4.13;;;2.92;;
17955;SDS011;27666;51.498;11.966;2023-07-02T03:57:03;4.13;;;3.13;;
17955;SDS011;27666;51.498;11.966;2023-07-02T03:59:49;6.15;;;3.10;;
17955;SDS011;27666;51.498;11.966;2023-07-02T04:02:36;5.05;;;3.30;;
17955;SDS011;27666;51.498;11.966;2023-07-02T04:05:25;4.63;;;3.17;;
17955;SDS011;27666;51.498;11.966;2023-07-02T04:08:14;5.53;;;3.55;;
17955;SDS011;27666;51.498;11.966;2023-07-02T04:11:01;7.35;;;3.50;;
17955;SDS011;27666;51.498;11.966;2023-07-02T04:13:47;5.95;;;2.95;;
17955;SDS011;27666;51.498;11.966;2023-07-02T04:16:33;4.20;;;3.22;;
17955;SDS011;27666;51.498;11.966;2023-07-02T04:19:20;5.00;;;3.42;;
17955;SDS011;27666;51.498;11.966;2023-07-02T04:22:07;5.05;;;3.47;;
17955;SDS011;27666;51.498;11.966;2023-07-02T04:24:58;3.92;;;3.20;;
17955;SDS011;27666;51.498;11.966;2023-07-02T04:27:53;4.97;;;3.38;;
17955;SDS011;27666;51.498;11.966;2023-07-02T04:30:41;5.07;;;3.75;;
17955;SDS011;27666;51.498;11.966;2023-07-02T04:33:28;5.93;;;3.42;;
17955;SDS011;27666;51.498;11.966;2023-07-02T04:36:20;3.88;;;3.58;;
17955;SDS011;27666;51.498;11.966;2023-07-02T04:39:08;4.00;;;3.28;;
17955;SDS011;27666;51.498;11.966;2023-07-02T04:41:57;3.95;;;3.45;;
17955;SDS011;27666;51.498;11.966;2023-07-02T04:44:44;4.20;;;3.47;;
17955;SDS011;27666;51.498;11.966;2023-07-02T04:47:30;4.82;;;4.10;;
17955;SDS011;27666;51.498;11.966;2023-07-02T04:50:17;6.25;;;3.65;;
17955;SDS011;27666;51.498;11.966;2023-07-02T04:53:05;5.97;;;3.70;;
17955;SDS011;27666;51.498;11.966;2023-07-02T04:55:51;5.07;;;3.75;;
17955;SDS011;27666;51.498;11.966;2023-07-02T04:58:39;7.97;;;3.80;;
17955;SDS011;27666;51.498;11.966;2023-07-02T05:01:27;4.70;;;3.90;;
17955;SDS011;27666;51.498;11.966;2023-07-02T05:04:14;5.72;;;3.75;;
17955;SDS011;27666;51.498;11.966;2023-07-02T05:07:00;3.90;;;3.60;;
17955;SDS011;27666;51.498;11.966;2023-07-02T05:09:46;6.53;;;4.00;;
17955;SDS011;27666;51.498;11.966;2023-07-02T05:12:34;10.05;;;4.32;;
17955;SDS011;27666;51.498;11.966;2023-07-02T05:15:23;7.70;;;4.00;;
17955;SDS011;27666;51.498;11.966;2023-07-02T05:18:09;6.72;;;4.30;;
17955;SDS011;27666;51.498;11.966;2023-07-02T05:20:56;4.95;;;3.92;;
17955;SDS011;27666;51.498;11.966;2023-07-02T05:23:42;6.60;;;4.25;;
17955;SDS011;27666;51.498;11.966;2023-07-02T05:26:28;5.93;;;4.28;;
17955;SDS011;27666;51.498;11.966;2023-07-02T05:29:14;6.78;;;4.78;;
17955;SDS011;27666;51.498;11.966;2023-07-02T05:32:02;6.22;;;4.30;;
17955;SDS011;27666;51.498;11.966;2023-07-02T05:34:51;5.45;;;4.93;;
17955;SDS011;27666;51.498;11.966;2023-07-02T05:37:37;5.20;;;4.72;;
17955;SDS011;27666;51.498;11.966;2023-07-02T05:40:24;4.45;;;4.05;;
17955;SDS011;27666;51.498;11.966;2023-07-02T05:43:10;5.18;;;3.75;;
17955;SDS011;27666;51.498;11.966;2023-07-02T05:45:57;4.97;;;3.55;;
17955;SDS011;27666;51.498;11.966;2023-07-02T05:48:47;5.03;;;4.53;;
17955;SDS011;27666;51.498;11.966;2023-07-02T05:51:34;4.20;;;3.80;;
17955;SDS011;27666;51.498;11.966;2023-07-02T05:54:20;4.50;;;4.10;;
17955;SDS011;27666;51.498;11.966;2023-07-02T05:57:06;4.85;;;3.75;;
17955;SDS011;27666;51.498;11.966;2023-07-02T05:59:53;4.32;;;3.70;;
17955;SDS011;27666;51.498;11.966;2023-07-02T06:02:40;3.70;;;3.40;;
17955;SDS011;27666;51.498;11.966;2023-07-02T06:05:28;5.82;;;3.25;;
17955;SDS011;27666;51.498;11.966;2023-07-02T06:08:15;5.90;;;3.60;;
17955;SDS011;27666;51.498;11.966;2023-07-02T06:11:02;3.40;;;3.08;;
17955;SDS011;27666;51.498;11.966;2023-07-02T06:13:49;4.82;;;2.80;;
17955;SDS011;27666;51.498;11.966;2023-07-02T06:16:36;3.70;;;2.90;;
17955;SDS011;27666;51.498;11.966;2023-07-02T06:19:22;7.13;;;2.67;;
17955;SDS011;27666;51.498;11.966;2023-07-02T06:22:11;5.78;;;3.03;;
17955;SDS011;27666;51.498;11.966;2023-07-02T06:24:58;4.25;;;2.60;;
17955;SDS011;27666;51.498;11.966;2023-07-02T06:27:49;3.47;;;3.15;;
17955;SDS011;27666;51.498;11.966;2023-07-02T06:30:36;9.55;;;3.65;;
17955;SDS011;27666;51.498;11.966;2023-07-02T06:33:23;7.28;;;3.40;;
17955;SDS011;27666;51.498;11.966;2023-07-02T06:36:10;11.10;;;5.93;;
17955;SDS011;27666;51.498;11.966;2023-07-02T06:39:02;13.00;;;6.90;;
17955;SDS011;27666;51.498;11.966;2023-07-02T06:41:49;6.70;;;3.60;;
17955;SDS011;27666;51.498;11.966;2023-07-02T06:44:35;7.82;;;4.30;;
17955;SDS011;27666;51.498;11.966;2023-07-02T06:47:22;5.18;;;3.60;;
17955;SDS011;27666;51.498;11.966;2023-07-02T06:50:08;4.90;;;3.10;;
17955;SDS011;27666;51.498;11.966;2023-07-02T06:52:55;2.80;;;2.60;;
17955;SDS011;27666;51.498;11.966;2023-07-02T06:55:43;3.70;;;2.60;;
17955;SDS011;27666;51.498;11.966;2023-07-02T06:58:30;3.47;;;2.55;;
17955;SDS011;27666;51.498;11.966;2023-07-02T07:01:16;2.55;;;2.35;;
17955;SDS011;27666;51.498;11.966;2023-07-02T07:04:03;2.88;;;2.67;;
17955;SDS011;27666;51.498;11.966;2023-07-02T07:06:49;3.03;;;2.72;;
17955;SDS011;27666;51.498;11.966;2023-07-02T07:09:36;3.65;;;2.55;;
17955;SDS011;27666;51.498;11.966;2023-07-02T07:12:24;3.20;;;2.90;;
17955;SDS011;27666;51.498;11.966;2023-07-02T07:15:10;12.30;;;7.15;;
17955;SDS011;27666;51.498;11.966;2023-07-02T07:17:57;2.85;;;2.42;;
17955;SDS011;27666;51.498;11.966;2023-07-02T07:20:44;5.88;;;2.78;;
17955;SDS011;27666;51.498;11.966;2023-07-02T07:23:31;2.80;;;2.60;;
17955;SDS011;27666;51.498;11.966;2023-07-02T07:26:17;3.08;;;2.75;;
17955;SDS011;27666;51.498;11.966;2023-07-02T07:29:07;4.22;;;2.83;;
17955;SDS011;27666;51.498;11.966;2023-07-02T07:31:54;4.20;;;2.63;;
17955;SDS011;27666;51.498;11.966;2023-07-02T07:34:42;3.13;;;2.83;;
17955;SDS011;27666;51.498;11.966;2023-07-02T07:37:29;3.22;;;2.40;;
17955;SDS011;27666;51.498;11.966;2023-07-02T07:40:15;3.70;;;2.60;;
17955;SDS011;27666;51.498;11.966;2023-07-02T07:43:02;2.72;;;2.53;;
17955;SDS011;27666;51.498;11.966;2023-07-02T07:45:49;3.97;;;2.50;;
17955;SDS011;27666;51.498;11.966;2023-07-02T07:48:36;4.95;;;4.45;;
17955;SDS011;27666;51.498;11.966;2023-07-02T07:51:23;2.80;;;2.60;;
17955;SDS011;27666;51.498;11.966;2023-07-02T07:54:10;3.10;;;2.80;;
17955;SDS011;27666;51.498;11.966;2023-07-02T07:56:57;3.75;;;2.40;;
17955;SDS011;27666;51.498;11.966;2023-07-02T07:59:43;5.28;;;2.50;;
17955;SDS011;27666;51.498;11.966;2023-07-02T08:02:31;4.70;;;3.03;;
17955;SDS011;27666;51.498;11.966;2023-07-02T08:05:18;9.65;;;4.43;;
17955;SDS011;27666;51.498;11.966;2023-07-02T08:08:04;5.93;;;3.15;;
17955;SDS011;27666;51.498;11.966;2023-07-02T08:10:53;8.60;;;2.95;;
17955;SDS011;27666;51.498;11.966;2023-07-02T08:13:39;5.57;;;2.65;;
17955;SDS011;27666;51.498;11.966;2023-07-02T08:16:25;3.00;;;2.55;;
17955;SDS011;27666;51.498;11.966;2023-07-02T08:19:14;4.38;;;3.22;;
17955;SDS011;27666;51.498;11.966;2023-07-02T08:22:00;4.00;;;2.38;;
17955;SDS011;27666;51.498;11.966;2023-07-02T08:24:47;4.15;;;2.65;;
17955;SDS011;27666;51.498;11.966;2023-07-02T08:27:34;4.60;;;2.58;;
17955;SDS011;27666;51.498;11.966;2023-07-02T08:30:21;4.32;;;2.40;;
17955;SDS011;27666;51.498;11.966;2023-07-02T08:33:07;5.55;;;2.80;;
17955;SDS011;27666;51.498;11.966;2023-07-02T08:35:55;4.43;;;3.13;;
17955;SDS011;27666;51.498;11.966;2023-07-02T08:38:42;8.25;;;3.63;;
17955;SDS011;27666;51.498;11.966;2023-07-02T08:41:28;4.20;;;3.10;;
17955;SDS011;27666;51.498;11.966;2023-07-02T08:44:19;4.20;;;3.58;;
17955;SDS011;27666;51.498;11.966;2023-07-02T08:47:07;4.43;;;3.33;;
17955;SDS011;27666;51.498;11.966;2023-07-02T08:49:55;6.20;;;3.83;;
17955;SDS011;27666;51.498;11.966;2023-07-02T08:52:43;4.28;;;3.40;;
17955;SDS011;27666;51.498;11.966;2023-07-02T08:55:30;7.43;;;4.45;;
17955;SDS011;27666;51.498;11.966;2023-07-02T08:58:17;7.93;;;4.40;;
17955;SDS011;27666;51.498;11.966;2023-07-02T09:01:04;5.55;;;5.03;;
17955;SDS011;27666;51.498;11.966;2023-07-02T09:03:52;8.93;;;4.20;;
17955;SDS011;27666;51.498;11.966;2023-07-02T09:06:44;6.38;;;4.20;;
17955;SDS011;27666;51.498;11.966;2023-07-02T09:09:32;8.45;;;4.43;;
17955;SDS011;27666;51.498;11.966;2023-07-02T09:12:30;5.82;;;4.30;;
17955;SDS011;27666;51.498;11.966;2023-07-02T09:15:17;10.18;;;4.47;;
17955;SDS011;27666;51.498;11.966;2023-07-02T09:18:15;5.85;;;4.57;;
17955;SDS011;27666;51.498;11.966;2023-07-02T09:21:05;4.30;;;3.83;;
17955;SDS011;27666;51.498;11.966;2023-07-02T09:23:52;5.50;;;4.45;;
17955;SDS011;27666;51.498;11.966;2023-07-02T09:26:42;6.22;;;4.60;;
17955;SDS011;27666;51.498;11.966;2023-07-02T09:29:30;8.38;;;5.55;;
17955;SDS011;27666;51.498;11.966;2023-07-02T09:32:23;8.88;;;4.95;;
17955;SDS011;27666;51.498;11.966;2023-07-02T09:35:11;6.60;;;5.13;;
17955;SDS011;27666;51.498;11.966;2023-07-02T09:38:01;8.27;;;4.68;;
17955;SDS011;27666;51.498;11.966;2023-07-02T09:40:49;6.57;;;5.15;;
17955;SDS011;27666;51.498;11.966;2023-07-02T09:43:38;6.65;;;5.28;;
17955;SDS011;27666;51.498;11.966;2023-07-02T09:46:25;6.10;;;4.65;;
17955;SDS011;27666;51.498;11.966;2023-07-02T09:49:12;5.15;;;4.10;;
17955;SDS011;27666;51.498;11.966;2023-07-02T09:52:00;6.70;;;4.82;;
17955;SDS011;27666;51.498;11.966;2023-07-02T09:54:48;8.15;;;4.70;;
17955;SDS011;27666;51.498;11.966;2023-07-02T09:57:34;6.38;;;4.35;;
17955;SDS011;27666;51.498;11.966;2023-07-02T10:00:23;7.70;;;5.03;;
17955;SDS011;27666;51.498;11.966;2023-07-02T10:03:10;8.18;;;6.00;;
17955;SDS011;27666;51.498;11.966;2023-07-02T10:06:03;7.55;;;4.60;;
17955;SDS011;27666;51.498;11.966;2023-07-02T10:08:54;6.78;;;4.53;;
17955;SDS011;27666;51.498;11.966;2023-07-02T10:11:41;6.95;;;4.70;;
17955;SDS011;27666;51.498;11.966;2023-07-02T10:14:39;6.07;;;4.47;;
17955;SDS011;27666;51.498;11.966;2023-07-02T10:17:28;5.47;;;4.82;;
17955;SDS011;27666;51.498;11.966;2023-07-02T10:20:17;7.00;;;4.75;;
17955;SDS011;27666;51.498;11.966;2023-07-02T10:23:03;7.15;;;4.65;;
17955;SDS011;27666;51.498;11.966;2023-07-02T10:25:50;6.22;;;4.60;;
17955;SDS011;27666;51.498;11.966;2023-07-02T10:28:37;7.70;;;4.70;;
17955;SDS011;27666;51.498;11.966;2023-07-02T10:31:23;5.45;;;4.65;;
17955;SDS011;27666;51.498;11.966;2023-07-02T10:34:11;8.80;;;4.97;;
17955;SDS011;27666;51.498;11.966;2023-07-02T10:36:57;7.80;;;5.57;;
17955;SDS011;27666;51.498;11.966;2023-07-02T10:39:44;6.88;;;5.22;;
17955;SDS011;27666;51.498;11.966;2023-07-02T10:42:31;7.88;;;6.05;;
17955;SDS011;27666;51.498;11.966;2023-07-02T10:45:19;10.77;;;5.85;;
17955;SDS011;27666;51.498;11.966;2023-07-02T10:48:08;9.13;;;5.72;;
17955;SDS011;27666;51.498;11.966;2023-07-02T10:50:56;7.47;;;5.57;;
17955;SDS011;27666;51.498;11.966;2023-07-02T10:53:43;10.45;;;5.93;;
17955;SDS011;27666;51.498;11.966;2023-07-02T10:56:32;11.77;;;6.50;;
17955;SDS011;27666;51.498;11.966;2023-07-02T10:59:23;12.73;;;6.25;;
17955;SDS011;27666;51.498;11.966;2023-07-02T11:02:09;10.15;;;6.18;;
17955;SDS011;27666;51.498;11.966;2023-07-02T11:04:56;9.52;;;6.35;;
17955;SDS011;27666;51.498;11.966;2023-07-02T11:07:45;9.07;;;6.30;;
17955;SDS011;27666;51.498;11.966;2023-07-02T11:10:32;11.32;;;6.15;;
17955;SDS011;27666;51.498;11.966;2023-07-02T11:13:19;12.60;;;6.47;;
17955;SDS011;27666;51.498;11.966;2023-07-02T11:16:16;12.90;;;7.70;;
17955;SDS011;27666;51.498;11.966;2023-07-02T11:19:07;9.80;;;5.95;;
17955;SDS011;27666;51.498;11.966;2023-07-02T11:21:54;9.50;;;6.32;;
17955;SDS011;27666;51.498;11.966;2023-07-02T11:24:44;10.43;;;6.13;;
17955;SDS011;27666;51.498;11.966;2023-07-02T11:27:31;17.90;;;6.65;;
17955;SDS011;27666;51.498;11.966;2023-07-02T11:30:17;11.65;;;6.20;;
17955;SDS011;27666;51.498;11.966;2023-07-02T11:33:04;10.93;;;5.80;;
17955;SDS011;27666;51.498;11.966;2023-07-02T11:35:51;11.68;;;6.25;;
17955;SDS011;27666;51.498;11.966;2023-07-02T11:38:37;15.18;;;6.68;;
17955;SDS011;27666;51.498;11.966;2023-07-02T11:41:25;11.70;;;6.78;;
17955;SDS011;27666;51.498;11.966;2023-07-02T11:44:22;12.25;;;6.45;;
17955;SDS011;27666;51.498;11.966;2023-07-02T11:47:09;11.73;;;6.55;;
17955;SDS011;27666;51.498;11.966;2023-07-02T11:49:56;9.38;;;6.22;;
17955;SDS011;27666;51.498;11.966;2023-07-02T11:52:52;15.52;;;7.38;;
17955;SDS011;27666;51.498;11.966;2023-07-02T11:55:39;10.07;;;6.13;;
17955;SDS011;27666;51.498;11.966;2023-07-02T11:58:27;15.10;;;7.60;;
17955;SDS011;27666;51.498;11.966;2023-07-02T12:01:14;19.20;;;9.90;;
17955;SDS011;27666;51.498;11.966;2023-07-02T12:04:01;10.52;;;6.05;;
17955;SDS011;27666;51.498;11.966;2023-07-02T12:06:47;10.98;;;7.10;;
17955;SDS011;27666;51.498;11.966;2023-07-02T12:09:34;8.23;;;5.68;;
17955;SDS011;27666;51.498;11.966;2023-07-02T12:12:21;12.65;;;6.82;;
17955;SDS011;27666;51.498;11.966;2023-07-02T12:15:11;9.65;;;6.25;;
17955;SDS011;27666;51.498;11.966;2023-07-02T12:17:57;11.43;;;6.63;;
17955;SDS011;27666;51.498;11.966;2023-07-02T12:20:44;10.48;;;6.50;;
17955;SDS011;27666;51.498;11.966;2023-07-02T12:23:31;11.82;;;6.50;;
17955;SDS011;27666;51.498;11.966;2023-07-02T12:26:17;13.13;;;6.30;;
17955;SDS011;27666;51.498;11.966;2023-07-02T12:29:03;10.68;;;6.80;;
17955;SDS011;27666;51.498;11.966;2023-07-02T12:31:51;13.68;;;7.10;;
17955;SDS011;27666;51.498;11.966;2023-07-02T12:34:37;13.20;;;7.40;;
17955;SDS011;27666;51.498;11.966;2023-07-02T12:37:24;12.18;;;6.72;;
17955;SDS011;27666;51.498;11.966;2023-07-02T12:40:11;10.50;;;6.68;;
17955;SDS011;27666;51.498;11.966;2023-07-02T12:42:58;14.50;;;7.43;;
17955;SDS011;27666;51.498;11.966;2023-07-02T12:45:45;11.48;;;6.90;;
17955;SDS011;27666;51.498;11.966;2023-07-02T12:48:33;10.75;;;6.75;;
17955;SDS011;27666;51.498;11.966;2023-07-02T12:51:20;13.82;;;7.28;;
17955;SDS011;27666;51.498;11.966;2023-07-02T12:54:06;15.73;;;7.97;;
17955;SDS011;27666;51.498;11.966;2023-07-02T12:56:53;12.25;;;6.90;;
17955;SDS011;27666;51.498;11.966;2023-07-02T12:59:39;13.25;;;7.05;;
17955;SDS011;27666;51.498;11.966;2023-07-02T13:02:26;13.15;;;7.05;;
17955;SDS011;27666;51.498;11.966;2023-07-02T13:05:14;11.63;;;6.85;;
17955;SDS011;27666;51.498;11.966;2023-07-02T13:08:01;15.10;;;7.18;;
17955;SDS011;27666;51.498;11.966;2023-07-02T13:10:47;14.52;;;7.78;;
17955;SDS011;27666;51.498;11.966;2023-07-02T13:13:33;38.20;;;20.33;;
17955;SDS011;27666;51.498;11.966;2023-07-02T13:16:21;16.52;;;7.93;;
17955;SDS011;27666;51.498;11.966;2023-07-02T13:19:11;13.43;;;8.48;;
17955;SDS011;27666;51.498;11.966;2023-07-02T13:21:58;22.48;;;10.48;;
17955;SDS011;27666;51.498;11.966;2023-07-02T13:24:45;17.30;;;10.07;;
17955;SDS011;27666;51.498;11.966;2023-07-02T13:27:32;20.02;;;11.10;;
17955;SDS011;27666;51.498;11.966;2023-07-02T13:30:18;24.80;;;13.68;;
17955;SDS011;27666;51.498;11.966;2023-07-02T13:33:05;15.95;;;8.38;;
17955;SDS011;27666;51.498;11.966;2023-07-02T13:35:52;17.48;;;7.28;;
17955;SDS011;27666;51.498;11.966;2023-07-02T13:38:39;16.58;;;8.77;;
17955;SDS011;27666;51.498;11.966;2023-07-02T13:41:28;13.05;;;7.57;;
17955;SDS011;27666;51.498;11.966;2023-07-02T13:44:15;11.05;;;7.78;;
17955;SDS011;27666;51.498;11.966;2023-07-02T13:47:01;18.23;;;9.57;;
17955;SDS011;27666;51.498;11.966;2023-07-02T13:49:48;12.70;;;7.60;;
17955;SDS011;27666;51.498;11.966;2023-07-02T13:52:34;19.05;;;11.60;;
17955;SDS011;27666;51.498;11.966;2023-07-02T13:55:22;16.60;;;8.95;;
17955;SDS011;27666;51.498;11.966;2023-07-02T13:58:12;11.95;;;7.55;;
17955;SDS011;27666;51.498;11.966;2023-07-02T14:01:14;12.98;;;8.15;;
17955;SDS011;27666;51.498;11.966;2023-07-02T14:04:01;13.65;;;7.38;;
17955;SDS011;27666;51.498;11.966;2023-07-02T14:06:48;22.60;;;11.70;;
17955;SDS011;27666;51.498;11.966;2023-07-02T14:09:35;17.05;;;9.20;;
17955;SDS011;27666;51.498;11.966;2023-07-02T14:12:22;14.93;;;7.90;;
17955;SDS011;27666;51.498;11.966;2023-07-02T14:15:09;14.02;;;8.52;;
17955;SDS011;27666;51.498;11.966;2023-07-02T14:17:57;12.02;;;7.45;;
17955;SDS011;27666;51.498;11.966;2023-07-02T14:20:44;12.75;;;7.53;;
17955;SDS011;27666;51.498;11.966;2023-07-02T14:23:31;15.40;;;8.02;;
17955;SDS011;27666;51.498;11.966;2023-07-02T14:26:18;13.10;;;7.70;;
17955;SDS011;27666;51.498;11.966;2023-07-02T14:29:04;13.63;;;7.75;;
17955;SDS011;27666;51.498;11.966;2023-07-02T14:31:51;13.93;;;8.00;;
17955;SDS011;27666;51.498;11.966;2023-07-02T14:34:38;12.40;;;7.78;;
17955;SDS011;27666;51.498;11.966;2023-07-02T14:37:25;12.20;;;7.85;;
17955;SDS011;27666;51.498;11.966;2023-07-02T14:40:15;17.90;;;8.45;;
17955;SDS011;27666;51.498;11.966;2023-07-02T14:43:01;17.38;;;8.43;;
17955;SDS011;27666;51.498;11.966;2023-07-02T14:45:50;16.10;;;7.85;;
17955;SDS011;27666;51.498;11.966;2023-07-02T14:48:37;14.18;;;7.85;;
17955;SDS011;27666;51.498;11.966;2023-07-02T14:51:26;15.85;;;8.20;;
17955;SDS011;27666;51.498;11.966;2023-07-02T14:54:15;14.80;;;8.85;;
17955;SDS011;27666;51.498;11.966;2023-07-02T14:57:01;13.43;;;8.00;;
17955;SDS011;27666;51.498;11.966;2023-07-02T14:59:48;13.50;;;8.20;;
17955;SDS011;27666;51.498;11.966;2023-07-02T15:02:36;16.75;;;8.38;;
17955;SDS011;27666;51.498;11.966;2023-07-02T15:05:23;18.23;;;8.13;;
17955;SDS011;27666;51.498;11.966;2023-07-02T15:08:11;13.85;;;8.45;;
17955;SDS011;27666;51.498;11.966;2023-07-02T15:10:58;12.73;;;7.30;;
17955;SDS011;27666;51.498;11.966;2023-07-02T15:13:45;15.20;;;7.88;;
17955;SDS011;27666;51.498;11.966;2023-07-02T15:16:33;15.85;;;8.10;;
17955;SDS011;27666;51.498;11.966;2023-07-02T15:19:20;17.10;;;8.30;;
17955;SDS011;27666;51.498;11.966;2023-07-02T15:22:09;18.55;;;9.00;;
17955;SDS011;27666;51.498;11.966;2023-07-02T15:24:57;15.27;;;7.72;;
17955;SDS011;27666;51.498;11.966;2023-07-02T15:27:43;15.88;;;8.40;;
17955;SDS011;27666;51.498;11.966;2023-07-02T15:30:30;15.85;;;8.48;;
17955;SDS011;27666;51.498;11.966;2023-07-02T15:33:17;14.25;;;7.85;;
17955;SDS011;27666;51.498;11.966;2023-07-02T15:36:04;16.63;;;8.45;;
17955;SDS011;27666;51.498;11.966;2023-07-02T15:38:54;20.75;;;8.40;;
17955;SDS011;27666;51.498;11.966;2023-07-02T15:41:42;13.23;;;7.93;;
17955;SDS011;27666;51.498;11.966;2023-07-02T15:44:28;12.80;;;8.15;;
17955;SDS011;27666;51.498;11.966;2023-07-02T15:47:15;18.52;;;9.23;;
17955;SDS011;27666;51.498;11.966;2023-07-02T15:50:01;13.80;;;7.93;;
17955;SDS011;27666;51.498;11.966;2023-07-02T15:52:49;17.35;;;8.18;;
17955;SDS011;27666;51.498;11.966;2023-07-02T15:55:35;14.23;;;8.45;;
17955;SDS011;27666;51.498;11.966;2023-07-02T15:58:23;18.77;;;8.65;;
17955;SDS011;27666;51.498;11.966;2023-07-02T16:01:12;17.58;;;8.68;;
17955;SDS011;27666;51.498;11.966;2023-07-02T16:03:59;15.85;;;8.93;;
17955;SDS011;27666;51.498;11.966;2023-07-02T16:06:46;18.70;;;9.10;;
17955;SDS011;27666;51.498;11.966;2023-07-02T16:09:33;17.60;;;8.73;;
17955;SDS011;27666;51.498;11.966;2023-07-02T16:12:20;17.00;;;9.27;;
17955;SDS011;27666;51.498;11.966;2023-07-02T16:15:08;16.40;;;8.60;;
17955;SDS011;27666;51.498;11.966;2023-07-02T16:17:55;17.77;;;8.73;;
17955;SDS011;27666;51.498;11.966;2023-07-02T16:20:41;13.30;;;8.10;;
17955;SDS011;27666;51.498;11.966;2023-07-02T16:23:27;14.65;;;8.75;;
17955;SDS011;27666;51.498;11.966;2023-07-02T16:26:14;18.25;;;8.50;;
17955;SDS011;27666;51.498;11.966;2023-07-02T16:29:00;13.55;;;9.05;;
17955;SDS011;27666;51.498;11.966;2023-07-02T16:31:52;16.15;;;9.30;;